Eugene, Oregon
Current Conditions -  °F | °C
As of 3:54 AM on Sunday 23 Nov 2014 (Local Time) from KEUG Reporting Station
Scattered Clouds Scattered Clouds  
Wind Chill: 39°   Ceiling: Unl
Heat Index: 43°   Visibility: 10mi
Dew Point: 41°   Wind: 6mph
Humidity: 93%   Direction: 170°S
Pressure: 30.33"   Gusts: NA
Location:  44.05°N, 123.08°W
Report Text: KEUG 231154Z AUTO 17005KT 10SM SCT047 06/05 A3033 RMK AO2 SLP271 60000 70029 T00610050 10078 20044 50000
Loading
Personal Weather Stations






























Interactive Weather Map New forecast layout! Learn more

10-Day Weather Forecast

Advertisements
Track Severe Weather on mobile